createdAt,value
2017-06-24T00:00:24.592Z,1006.5
2017-06-24T00:01:05.083Z,1006.52
2017-06-24T00:01:45.587Z,1006.48
2017-06-24T00:02:26.071Z,1006.5
2017-06-24T00:03:06.583Z,1006.51
2017-06-24T00:03:47.064Z,1006.5
2017-06-24T00:04:27.558Z,1006.53
2017-06-24T00:05:08.068Z,1006.5
2017-06-24T00:05:48.569Z,1006.46
2017-06-24T00:06:29.056Z,1006.47
2017-06-24T00:07:09.554Z,1006.48
2017-06-24T00:07:50.047Z,1006.51
2017-06-24T00:08:30.546Z,1006.47
2017-06-24T00:09:11.032Z,1006.51
2017-06-24T00:09:51.527Z,1006.46
2017-06-24T00:10:32.021Z,1006.46
2017-06-24T00:11:12.514Z,1006.48
2017-06-24T00:11:52.998Z,1006.49
2017-06-24T00:12:33.493Z,1006.47
2017-06-24T00:13:13.994Z,1006.46
2017-06-24T00:13:54.494Z,1006.45
2017-06-24T00:14:34.998Z,1006.47
2017-06-24T00:15:15.496Z,1006.45
2017-06-24T00:15:55.983Z,1006.47
2017-06-24T00:16:36.485Z,1006.47
2017-06-24T00:17:16.976Z,1006.46
2017-06-24T00:17:57.471Z,1006.44
2017-06-24T00:18:37.976Z,1006.46
2017-06-24T00:19:18.462Z,1006.45
2017-06-24T00:19:58.956Z,1006.48
2017-06-24T00:20:39.464Z,1006.46
2017-06-24T00:21:19.975Z,1006.43
2017-06-24T00:22:00.455Z,1006.47
2017-06-24T00:22:40.951Z,1006.46
2017-06-24T00:23:21.449Z,1006.49
2017-06-24T00:24:01.940Z,1006.47
2017-06-24T00:24:42.428Z,1006.45
2017-06-24T00:25:22.927Z,1006.45
2017-06-24T00:26:03.436Z,1006.45
2017-06-24T00:28:01.158Z,1006.46
2017-06-24T00:28:41.641Z,1006.46
2017-06-24T00:29:22.139Z,1006.48
2017-06-24T00:30:02.649Z,1006.51
2017-06-24T00:30:43.131Z,1006.51
2017-06-24T00:31:23.621Z,1006.47
2017-06-24T00:32:04.095Z,1006.52
2017-06-24T00:32:44.588Z,1006.52
2017-06-24T00:33:25.095Z,1006.54
2017-06-24T00:34:05.588Z,1006.51
2017-06-24T00:34:46.090Z,1006.54
2017-06-24T00:35:26.583Z,1006.54
2017-06-24T00:36:07.069Z,1006.51
2017-06-24T00:36:47.562Z,1006.53
2017-06-24T00:37:28.055Z,1006.53
2017-06-24T00:38:08.548Z,1006.53
2017-06-24T00:38:49.047Z,1006.52
2017-06-24T00:39:29.541Z,1006.51
2017-06-24T00:40:10.027Z,1006.52
2017-06-24T00:40:50.523Z,1006.49
2017-06-24T00:41:31.021Z,1006.51
2017-06-24T00:42:11.502Z,1006.54
2017-06-24T00:42:51.997Z,1006.52
2017-06-24T00:43:32.492Z,1006.53
2017-06-24T00:44:12.978Z,1006.52
2017-06-24T00:44:53.477Z,1006.52
2017-06-24T00:45:33.970Z,1006.5
2017-06-24T00:46:14.452Z,1006.52
2017-06-24T00:46:54.943Z,1006.53
2017-06-24T00:47:35.439Z,1006.51
2017-06-24T00:48:15.937Z,1006.52
2017-06-24T00:48:56.424Z,1006.54
2017-06-24T00:49:36.915Z,1006.51
2017-06-24T00:50:17.444Z,1006.49
2017-06-24T00:50:57.908Z,1006.55
2017-06-24T00:51:39.284Z,1006.52
2017-06-24T00:52:19.777Z,1006.54
2017-06-24T00:53:00.273Z,1006.54
2017-06-24T00:53:40.746Z,1006.52
2017-06-24T00:54:21.245Z,1006.53
2017-06-24T00:55:01.736Z,1006.53
2017-06-24T00:55:42.241Z,1006.54
2017-06-24T00:56:22.732Z,1006.53
2017-06-24T00:57:03.229Z,1006.55
2017-06-24T00:57:43.710Z,1006.52
2017-06-24T00:58:24.205Z,1006.49
2017-06-24T00:59:04.678Z,1006.55
2017-06-24T00:59:45.181Z,1006.53
2017-06-24T01:00:25.680Z,1006.5
2017-06-24T01:01:06.178Z,1006.52
2017-06-24T01:01:46.668Z,1006.53
2017-06-24T01:02:27.778Z,1006.52
2017-06-24T01:03:08.263Z,1006.52
2017-06-24T01:03:48.767Z,1006.54
2017-06-24T01:04:29.258Z,1006.53
2017-06-24T01:05:09.755Z,1006.5
2017-06-24T01:05:50.234Z,1006.53
2017-06-24T01:06:30.728Z,1006.5
2017-06-24T01:07:11.224Z,1006.51
2017-06-24T01:07:51.720Z,1006.52
2017-06-24T01:08:32.208Z,1006.53
2017-06-24T01:09:12.768Z,1006.51
2017-06-24T01:09:53.274Z,1006.52
2017-06-24T01:10:33.779Z,1006.51
2017-06-24T01:11:14.269Z,1006.51
2017-06-24T01:11:54.772Z,1006.52
2017-06-24T01:12:35.277Z,1006.51
2017-06-24T01:13:15.783Z,1006.56
2017-06-24T01:13:56.278Z,1006.5
2017-06-24T01:14:36.767Z,1006.52
2017-06-24T01:15:17.267Z,1006.53
2017-06-24T01:15:57.758Z,1006.54
2017-06-24T01:16:38.255Z,1006.51
2017-06-24T01:17:18.749Z,1006.5
2017-06-24T01:17:59.241Z,1006.52
2017-06-24T01:18:39.733Z,1006.53
2017-06-24T01:19:20.224Z,1006.48
2017-06-24T01:20:00.711Z,1006.46
2017-06-24T01:20:41.204Z,1006.49
2017-06-24T01:21:21.700Z,1006.52
2017-06-24T01:22:02.191Z,1006.51
2017-06-24T01:22:42.685Z,1006.54
2017-06-24T01:23:23.181Z,1006.53
2017-06-24T01:24:03.675Z,1006.53
2017-06-24T01:24:44.175Z,1006.53
2017-06-24T01:25:24.679Z,1006.56
2017-06-24T01:26:05.171Z,1006.54
2017-06-24T01:26:45.672Z,1006.53
2017-06-24T01:27:26.161Z,1006.54
2017-06-24T01:28:06.656Z,1006.52
2017-06-24T01:28:47.156Z,1006.5
2017-06-24T01:29:27.654Z,1006.51
2017-06-24T01:30:08.148Z,1006.52
2017-06-24T01:30:48.652Z,1006.47
2017-06-24T01:31:29.146Z,1006.48
2017-06-24T01:32:09.635Z,1006.49
2017-06-24T01:32:50.135Z,1006.48
2017-06-24T01:33:30.629Z,1006.48
2017-06-24T01:34:11.126Z,1006.51
2017-06-24T01:34:51.618Z,1006.5
2017-06-24T01:35:32.106Z,1006.51
2017-06-24T01:36:12.608Z,1006.52
2017-06-24T01:36:53.089Z,1006.53
2017-06-24T01:37:33.585Z,1006.54
2017-06-24T01:38:14.075Z,1006.55
2017-06-24T01:38:54.571Z,1006.55
2017-06-24T01:39:35.065Z,1006.55
2017-06-24T01:40:15.559Z,1006.56
2017-06-24T01:40:56.050Z,1006.57
2017-06-24T01:41:36.547Z,1006.58
2017-06-24T01:42:17.033Z,1006.57
2017-06-24T01:42:57.522Z,1006.54
2017-06-24T01:43:37.994Z,1006.57
2017-06-24T01:44:18.518Z,1006.53
2017-06-24T01:44:58.991Z,1006.57
2017-06-24T01:45:39.493Z,1006.6
2017-06-24T01:46:19.974Z,1006.59
2017-06-24T01:47:00.473Z,1006.64
2017-06-24T01:47:40.963Z,1006.64
2017-06-24T01:48:21.464Z,1006.63
2017-06-24T01:49:01.962Z,1006.63
2017-06-24T01:49:42.448Z,1006.66
2017-06-24T01:50:22.939Z,1006.65
2017-06-24T01:51:03.433Z,1006.65
2017-06-24T01:51:43.926Z,1006.6
2017-06-24T01:52:24.410Z,1006.63
2017-06-24T01:53:04.901Z,1006.66
2017-06-24T01:53:45.389Z,1006.67
2017-06-24T01:54:25.901Z,1006.67
2017-06-24T01:55:06.376Z,1006.71
2017-06-24T01:55:46.879Z,1006.66
2017-06-24T01:56:27.368Z,1006.69
2017-06-24T01:57:07.864Z,1006.72
2017-06-24T01:57:48.355Z,1006.73
2017-06-24T01:58:28.844Z,1006.72
2017-06-24T01:59:09.332Z,1006.73
2017-06-24T01:59:49.823Z,1006.73
2017-06-24T02:00:30.311Z,1006.72
2017-06-24T02:01:10.805Z,1006.71
2017-06-24T02:01:51.310Z,1006.7
2017-06-24T02:02:31.831Z,1006.73
2017-06-24T02:03:12.330Z,1006.7
2017-06-24T02:03:52.816Z,1006.69
2017-06-24T02:04:33.304Z,1006.73
2017-06-24T02:05:13.820Z,1006.7
2017-06-24T02:05:54.293Z,1006.74
2017-06-24T02:06:34.784Z,1006.72
2017-06-24T02:07:15.280Z,1006.71
2017-06-24T02:07:55.769Z,1006.71
2017-06-24T02:08:36.258Z,1006.7
2017-06-24T02:09:16.737Z,1006.69
2017-06-24T02:09:57.239Z,1006.68
2017-06-24T02:10:37.736Z,1006.73
2017-06-24T02:11:18.222Z,1006.69
2017-06-24T02:11:58.719Z,1006.69
2017-06-24T02:12:39.214Z,1006.69
2017-06-24T02:13:19.714Z,1006.68
2017-06-24T02:14:00.201Z,1006.71
2017-06-24T02:14:40.689Z,1006.69
2017-06-24T02:15:21.192Z,1006.67
2017-06-24T02:16:01.654Z,1006.7
2017-06-24T02:16:42.157Z,1006.67
2017-06-24T02:17:22.633Z,1006.68
2017-06-24T02:18:03.109Z,1006.68
2017-06-24T02:18:43.615Z,1006.68
2017-06-24T02:19:24.099Z,1006.64
2017-06-24T02:20:04.592Z,1006.68
2017-06-24T02:20:45.090Z,1006.69
2017-06-24T02:21:25.584Z,1006.7
2017-06-24T02:22:06.064Z,1006.7
2017-06-24T02:22:46.569Z,1006.7
2017-06-24T02:23:27.068Z,1006.7
2017-06-24T02:24:07.554Z,1006.69
2017-06-24T02:24:48.052Z,1006.7
2017-06-24T02:25:28.537Z,1006.72
2017-06-24T02:26:09.034Z,1006.68
2017-06-24T02:26:49.547Z,1006.7
2017-06-24T02:27:30.006Z,1006.71
2017-06-24T02:28:10.499Z,1006.65
2017-06-24T02:28:50.990Z,1006.71
2017-06-24T02:29:31.488Z,1006.69
2017-06-24T02:30:11.967Z,1006.64
2017-06-24T02:30:52.470Z,1006.68
2017-06-24T02:31:32.963Z,1006.63
2017-06-24T02:32:13.441Z,1006.63
2017-06-24T02:32:53.938Z,1006.62
2017-06-24T02:33:34.447Z,1006.6
2017-06-24T02:34:14.925Z,1006.59
2017-06-24T02:34:55.428Z,1006.63
2017-06-24T02:35:35.915Z,1006.59
2017-06-24T02:36:16.400Z,1006.59
2017-06-24T02:36:56.893Z,1006.58
2017-06-24T02:37:37.390Z,1006.6
2017-06-24T02:38:17.885Z,1006.59
2017-06-24T02:38:58.384Z,1006.57
2017-06-24T02:39:38.875Z,1006.6
2017-06-24T02:40:19.373Z,1006.55
2017-06-24T02:40:59.866Z,1006.56
2017-06-24T02:41:40.354Z,1006.5
2017-06-24T02:42:20.840Z,1006.51
2017-06-24T02:43:01.337Z,1006.49
2017-06-24T02:43:41.826Z,1006.52
2017-06-24T02:44:22.321Z,1006.51
2017-06-24T02:45:02.844Z,1006.46
2017-06-24T02:45:43.304Z,1006.51
2017-06-24T02:46:23.793Z,1006.51
2017-06-24T02:47:04.300Z,1006.5
2017-06-24T02:47:44.782Z,1006.51
2017-06-24T02:48:25.265Z,1006.47
2017-06-24T02:49:05.764Z,1006.48
2017-06-24T02:49:46.268Z,1006.42
2017-06-24T02:50:26.758Z,1006.45
2017-06-24T02:51:08.007Z,1006.48
2017-06-24T02:51:48.551Z,1006.48
2017-06-24T02:52:29.040Z,1006.45
2017-06-24T02:53:09.570Z,1006.44
2017-06-24T02:53:50.029Z,1006.43
2017-06-24T02:54:30.530Z,1006.41
2017-06-24T02:55:11.017Z,1006.45
2017-06-24T02:55:51.508Z,1006.43
2017-06-24T02:56:32.009Z,1006.47
2017-06-24T02:57:12.497Z,1006.44
2017-06-24T02:57:52.985Z,1006.45
2017-06-24T02:58:34.092Z,1006.44
2017-06-24T02:59:14.589Z,1006.46
2017-06-24T02:59:55.081Z,1006.47
2017-06-24T03:00:35.556Z,1006.51
2017-06-24T03:01:16.061Z,1006.5
2017-06-24T03:01:56.548Z,1006.52
2017-06-24T03:02:37.039Z,1006.56
2017-06-24T03:03:17.543Z,1006.57
2017-06-24T03:03:58.034Z,1006.56
2017-06-24T03:04:38.535Z,1006.55
2017-06-24T03:05:19.017Z,1006.58
2017-06-24T03:05:59.514Z,1006.55
2017-06-24T03:06:40.006Z,1006.5
2017-06-24T03:07:20.498Z,1006.55
2017-06-24T03:08:00.985Z,1006.56
2017-06-24T03:08:41.483Z,1006.54
2017-06-24T03:09:21.966Z,1006.52
2017-06-24T03:10:02.468Z,1006.52
2017-06-24T03:10:42.956Z,1006.53
2017-06-24T03:11:23.450Z,1006.55
2017-06-24T03:12:03.944Z,1006.54
2017-06-24T03:12:44.439Z,1006.54
2017-06-24T03:13:24.927Z,1006.6
2017-06-24T03:14:05.426Z,1006.61
2017-06-24T03:14:45.920Z,1006.6
2017-06-24T03:15:26.429Z,1006.6
2017-06-24T03:16:06.931Z,1006.62
2017-06-24T03:16:47.424Z,1006.67
2017-06-24T03:17:27.912Z,1006.65
2017-06-24T03:18:08.390Z,1006.61
2017-06-24T03:18:48.883Z,1006.61
2017-06-24T03:19:29.385Z,1006.62
2017-06-24T03:20:09.879Z,1006.63
2017-06-24T03:20:50.398Z,1006.65
2017-06-24T03:21:30.891Z,1006.66
2017-06-24T03:22:11.394Z,1006.64
2017-06-24T03:22:51.879Z,1006.63
2017-06-24T03:23:32.365Z,1006.58
2017-06-24T03:24:12.870Z,1006.59
2017-06-24T03:24:53.364Z,1006.63
2017-06-24T03:25:33.858Z,1006.61
2017-06-24T03:26:14.343Z,1006.59
2017-06-24T03:28:06.891Z,1006.56
2017-06-24T03:28:47.379Z,1006.59
2017-06-24T03:29:27.865Z,1006.6
2017-06-24T03:30:08.360Z,1006.57
2017-06-24T03:30:48.850Z,1006.54
2017-06-24T03:31:29.350Z,1006.56
2017-06-24T03:32:09.821Z,1006.57
2017-06-24T03:32:50.320Z,1006.59
2017-06-24T03:33:30.812Z,1006.6
2017-06-24T03:34:11.315Z,1006.64
2017-06-24T03:34:51.798Z,1006.64
2017-06-24T03:35:32.292Z,1006.64
2017-06-24T03:36:12.801Z,1006.61
2017-06-24T03:36:53.277Z,1006.63
2017-06-24T03:37:33.766Z,1006.6
2017-06-24T03:38:14.251Z,1006.64
2017-06-24T03:38:54.731Z,1006.59
2017-06-24T03:39:35.242Z,1006.62
2017-06-24T03:40:15.732Z,1006.64
2017-06-24T03:40:56.233Z,1006.63
2017-06-24T03:41:36.729Z,1006.66
2017-06-24T03:42:17.241Z,1006.67
2017-06-24T03:42:57.694Z,1006.76
2017-06-24T03:43:38.203Z,1006.71
2017-06-24T03:44:18.690Z,1006.7
2017-06-24T03:44:59.188Z,1006.69
2017-06-24T03:45:39.682Z,1006.69
2017-06-24T03:46:20.175Z,1006.69
2017-06-24T03:47:00.648Z,1006.65
2017-06-24T03:47:41.151Z,1006.66
2017-06-24T03:48:21.634Z,1006.67
2017-06-24T03:49:02.128Z,1006.67
2017-06-24T03:49:42.618Z,1006.67
2017-06-24T03:50:23.107Z,1006.66
2017-06-24T03:51:03.592Z,1006.71
2017-06-24T03:51:44.087Z,1006.69
2017-06-24T03:52:24.584Z,1006.71
2017-06-24T03:53:05.093Z,1006.71
2017-06-24T03:53:45.601Z,1006.65
2017-06-24T03:54:26.097Z,1006.69
2017-06-24T03:55:06.601Z,1006.64
2017-06-24T03:55:47.093Z,1006.68
2017-06-24T03:56:27.585Z,1006.69
2017-06-24T03:57:08.082Z,1006.68
2017-06-24T03:57:48.570Z,1006.69
2017-06-24T03:58:29.070Z,1006.7
2017-06-24T03:59:09.562Z,1006.69
2017-06-24T03:59:50.048Z,1006.68
2017-06-24T04:00:30.550Z,1006.69
2017-06-24T04:01:11.047Z,1006.7
2017-06-24T04:01:51.537Z,1006.72
2017-06-24T04:02:32.032Z,1006.72
2017-06-24T04:03:12.517Z,1006.72
2017-06-24T04:03:53.014Z,1006.73
2017-06-24T04:04:33.495Z,1006.7
2017-06-24T04:05:13.988Z,1006.72
2017-06-24T04:05:54.500Z,1006.72
2017-06-24T04:06:34.979Z,1006.71
2017-06-24T04:07:15.474Z,1006.74
2017-06-24T04:07:55.961Z,1006.75
2017-06-24T04:08:36.460Z,1006.74
2017-06-24T04:09:16.952Z,1006.78
2017-06-24T04:09:57.440Z,1006.75
2017-06-24T04:10:37.939Z,1006.75
2017-06-24T04:11:18.434Z,1006.77
2017-06-24T04:11:58.923Z,1006.73
2017-06-24T04:12:39.407Z,1006.75
2017-06-24T04:13:19.897Z,1006.73
2017-06-24T04:14:00.384Z,1006.75
2017-06-24T04:14:40.885Z,1006.78
2017-06-24T04:15:21.387Z,1006.79
2017-06-24T04:16:01.889Z,1006.84
2017-06-24T04:16:42.398Z,1006.8
2017-06-24T04:17:22.882Z,1006.84
2017-06-24T04:18:03.379Z,1006.8
2017-06-24T04:18:43.871Z,1006.78
2017-06-24T04:19:24.369Z,1006.81
2017-06-24T04:20:04.886Z,1006.81
2017-06-24T04:20:45.373Z,1006.81
2017-06-24T04:21:25.870Z,1006.83
2017-06-24T04:22:06.365Z,1006.82
2017-06-24T04:22:46.863Z,1006.82
2017-06-24T04:23:27.379Z,1006.84
2017-06-24T04:24:07.889Z,1006.83
2017-06-24T04:24:48.378Z,1006.84
2017-06-24T04:25:28.878Z,1006.83
2017-06-24T04:26:09.374Z,1006.85
2017-06-24T04:26:49.882Z,1006.86
2017-06-24T04:27:30.365Z,1006.81
2017-06-24T04:28:10.872Z,1006.83
2017-06-24T04:28:51.368Z,1006.81
2017-06-24T04:29:31.846Z,1006.82
2017-06-24T04:30:12.347Z,1006.84
2017-06-24T04:30:52.835Z,1006.84
2017-06-24T04:31:33.328Z,1006.85
2017-06-24T04:32:13.822Z,1006.86
2017-06-24T04:32:54.310Z,1006.89
2017-06-24T04:33:34.835Z,1006.86
2017-06-24T04:34:15.331Z,1006.87
2017-06-24T04:34:55.831Z,1006.86
2017-06-24T04:35:36.318Z,1006.88
2017-06-24T04:36:16.807Z,1006.88
2017-06-24T04:36:57.295Z,1006.86
2017-06-24T04:37:37.794Z,1006.9
2017-06-24T04:38:18.299Z,1006.91
2017-06-24T04:38:58.782Z,1006.9
2017-06-24T04:39:39.299Z,1006.95
2017-06-24T04:40:19.790Z,1006.91
2017-06-24T04:41:00.294Z,1006.97
2017-06-24T04:41:40.783Z,1006.97
2017-06-24T04:42:21.271Z,1006.95
2017-06-24T04:43:01.773Z,1006.97
2017-06-24T04:43:42.259Z,1006.97
2017-06-24T04:44:22.760Z,1006.98
2017-06-24T04:45:03.247Z,1006.94
2017-06-24T04:45:44.390Z,1006.97
2017-06-24T04:46:24.878Z,1007.02
2017-06-24T04:47:05.372Z,1007.06
2017-06-24T04:47:45.862Z,1007.04
2017-06-24T04:48:26.360Z,1007.04
2017-06-24T04:49:06.856Z,1007.1
2017-06-24T04:49:47.346Z,1007.05
2017-06-24T04:50:27.859Z,1006.96
2017-06-24T04:51:08.352Z,1007.03
2017-06-24T04:51:48.852Z,1007.05
2017-06-24T04:52:29.342Z,1007.03
2017-06-24T04:53:09.841Z,1007.06
2017-06-24T04:53:50.326Z,1007.03
2017-06-24T04:54:30.825Z,1007.06
2017-06-24T04:55:11.313Z,1007.02
2017-06-24T04:55:51.808Z,1007.1
2017-06-24T04:56:32.300Z,1007.07
2017-06-24T04:57:12.791Z,1007.1
2017-06-24T04:57:53.288Z,1007.11
2017-06-24T04:58:33.775Z,1007.15
2017-06-24T04:59:14.268Z,1007.14
2017-06-24T04:59:54.763Z,1007.15
2017-06-24T05:00:35.256Z,1007.19
2017-06-24T05:01:15.745Z,1007.15
2017-06-24T05:01:56.245Z,1007.16
2017-06-24T05:02:36.735Z,1007.16
2017-06-24T05:03:17.231Z,1007.15
2017-06-24T05:03:57.740Z,1007.17
2017-06-24T05:04:38.234Z,1007.19
2017-06-24T05:05:18.733Z,1007.15
2017-06-24T05:05:59.229Z,1007.15
2017-06-24T05:06:39.722Z,1007.2
2017-06-24T05:07:20.207Z,1007.22
2017-06-24T05:08:00.701Z,1007.28
2017-06-24T05:08:41.184Z,1007.24
2017-06-24T05:09:21.681Z,1007.29
2017-06-24T05:10:02.178Z,1007.27
2017-06-24T05:10:42.661Z,1007.26
2017-06-24T05:11:23.164Z,1007.24
2017-06-24T05:12:03.669Z,1007.26
2017-06-24T05:12:44.176Z,1007.26
2017-06-24T05:13:24.670Z,1007.27
2017-06-24T05:14:05.170Z,1007.25
2017-06-24T05:14:45.649Z,1007.27
2017-06-24T05:16:38.201Z,1007.2
2017-06-24T05:17:18.680Z,1007.17
2017-06-24T05:17:59.174Z,1007.25
2017-06-24T05:18:39.661Z,1007.21
2017-06-24T05:19:20.158Z,1007.24
2017-06-24T05:20:00.649Z,1007.28
2017-06-24T05:20:41.148Z,1007.23
2017-06-24T05:21:21.627Z,1007.29
2017-06-24T05:22:02.127Z,1007.25
2017-06-24T05:22:42.624Z,1007.26
2017-06-24T05:23:23.109Z,1007.26
2017-06-24T05:24:03.602Z,1007.31
2017-06-24T05:24:44.089Z,1007.34
2017-06-24T05:25:24.591Z,1007.27
2017-06-24T05:26:05.083Z,1007.23
2017-06-24T05:26:45.578Z,1007.3
2017-06-24T05:27:26.077Z,1007.27
2017-06-24T05:28:06.571Z,1007.27
2017-06-24T05:28:47.062Z,1007.31
2017-06-24T05:29:27.572Z,1007.28
2017-06-24T05:30:08.062Z,1007.29
2017-06-24T05:30:48.565Z,1007.3
2017-06-24T05:31:29.058Z,1007.33
2017-06-24T05:32:09.546Z,1007.35
2017-06-24T05:32:50.046Z,1007.29
2017-06-24T05:33:30.540Z,1007.26
2017-06-24T05:34:11.031Z,1007.27
2017-06-24T05:34:51.520Z,1007.3
2017-06-24T05:35:32.013Z,1007.28
2017-06-24T05:36:12.494Z,1007.35
2017-06-24T05:36:52.998Z,1007.27
2017-06-24T05:37:33.490Z,1007.25
2017-06-24T05:38:13.973Z,1007.26
2017-06-24T05:38:54.473Z,1007.24
2017-06-24T05:39:34.967Z,1007.29
2017-06-24T05:40:15.456Z,1007.27
2017-06-24T05:40:55.952Z,1007.3
2017-06-24T05:41:36.438Z,1007.32
2017-06-24T05:42:16.936Z,1007.27
2017-06-24T05:42:57.430Z,1007.27
2017-06-24T05:43:37.930Z,1007.33
2017-06-24T05:44:18.415Z,1007.33
2017-06-24T05:44:58.902Z,1007.33
2017-06-24T05:45:39.390Z,1007.35
2017-06-24T05:46:19.881Z,1007.42
2017-06-24T05:47:00.374Z,1007.37
2017-06-24T05:47:40.873Z,1007.39
2017-06-24T05:48:21.371Z,1007.41
2017-06-24T05:49:01.860Z,1007.44
2017-06-24T05:49:42.350Z,1007.42
2017-06-24T05:50:22.833Z,1007.37
2017-06-24T05:51:03.326Z,1007.32
2017-06-24T05:51:43.819Z,1007.33
2017-06-24T05:52:24.308Z,1007.3
2017-06-24T05:53:04.809Z,1007.35
2017-06-24T05:53:45.300Z,1007.32
2017-06-24T05:56:03.117Z,1007.33
2017-06-24T05:56:43.604Z,1007.34
2017-06-24T05:57:24.101Z,1007.37
2017-06-24T05:58:04.623Z,1007.4
2017-06-24T05:58:45.112Z,1007.37
2017-06-24T05:59:25.603Z,1007.4
2017-06-24T06:00:06.115Z,1007.39
2017-06-24T06:00:46.600Z,1007.36
2017-06-24T06:01:27.111Z,1007.38
2017-06-24T06:02:07.584Z,1007.4
2017-06-24T06:02:48.071Z,1007.42
2017-06-24T06:03:28.552Z,1007.4
2017-06-24T06:04:09.042Z,1007.45
2017-06-24T06:04:49.534Z,1007.44
2017-06-24T06:05:30.023Z,1007.4
2017-06-24T06:06:10.514Z,1007.38
2017-06-24T06:06:51.007Z,1007.41
2017-06-24T06:07:31.493Z,1007.42
2017-06-24T06:08:11.986Z,1007.38
2017-06-24T06:08:52.487Z,1007.39
2017-06-24T06:09:32.970Z,1007.35
2017-06-24T06:10:13.475Z,1007.31
2017-06-24T06:10:53.970Z,1007.36
2017-06-24T06:11:34.442Z,1007.3
2017-06-24T06:12:14.936Z,1007.31
2017-06-24T06:12:55.440Z,1007.34
2017-06-24T06:13:35.933Z,1007.36
2017-06-24T06:14:16.431Z,1007.36
2017-06-24T06:14:56.924Z,1007.32
2017-06-24T06:15:37.421Z,1007.29
2017-06-24T06:16:17.936Z,1007.29
2017-06-24T06:16:58.432Z,1007.24
2017-06-24T06:17:38.923Z,1007.24
2017-06-24T06:18:19.424Z,1007.27
2017-06-24T06:18:59.914Z,1007.33
2017-06-24T06:19:40.426Z,1007.34
2017-06-24T06:20:20.927Z,1007.32
2017-06-24T06:21:01.421Z,1007.35
2017-06-24T06:21:41.906Z,1007.23
2017-06-24T06:22:22.385Z,1007.28
2017-06-24T06:23:02.890Z,1007.34
2017-06-24T06:23:43.400Z,1007.25
2017-06-24T06:24:23.892Z,1007.18
2017-06-24T06:25:04.411Z,1007.28
2017-06-24T06:25:44.890Z,1007.27
2017-06-24T06:26:25.395Z,1007.22
2017-06-24T06:27:05.886Z,1007.29
2017-06-24T06:27:46.377Z,1007.32
2017-06-24T06:28:26.896Z,1007.27
2017-06-24T06:29:07.395Z,1007.25
2017-06-24T06:29:47.869Z,1007.33
2017-06-24T06:30:28.373Z,1007.33
2017-06-24T06:31:08.883Z,1007.35
2017-06-24T06:31:49.362Z,1007.38
2017-06-24T06:32:29.861Z,1007.35
2017-06-24T06:33:10.356Z,1007.37
2017-06-24T06:33:50.845Z,1007.39
2017-06-24T06:34:31.352Z,1007.37
2017-06-24T06:35:11.840Z,1007.4
2017-06-24T06:35:52.332Z,1007.41
2017-06-24T06:36:32.833Z,1007.43
2017-06-24T06:37:13.326Z,1007.4
2017-06-24T06:37:53.824Z,1007.42
2017-06-24T06:38:34.314Z,1007.42
2017-06-24T06:39:14.809Z,1007.41
2017-06-24T06:39:55.302Z,1007.42
2017-06-24T06:40:35.796Z,1007.41
2017-06-24T06:41:16.288Z,1007.43
2017-06-24T06:41:56.806Z,1007.4
2017-06-24T06:42:37.281Z,1007.41
2017-06-24T06:43:17.763Z,1007.39
2017-06-24T06:43:58.258Z,1007.43
2017-06-24T06:44:38.752Z,1007.42
2017-06-24T06:45:19.242Z,1007.42
2017-06-24T06:45:59.739Z,1007.38
2017-06-24T06:46:40.227Z,1007.39
2017-06-24T06:47:20.715Z,1007.38
2017-06-24T06:48:01.215Z,1007.36
2017-06-24T06:48:41.711Z,1007.41
2017-06-24T06:49:22.225Z,1007.41
2017-06-24T06:50:02.731Z,1007.39
2017-06-24T06:50:43.223Z,1007.39
2017-06-24T06:51:23.715Z,1007.38
2017-06-24T06:52:04.219Z,1007.33
2017-06-24T06:52:44.722Z,1007.37
2017-06-24T06:53:25.217Z,1007.36
2017-06-24T06:54:05.719Z,1007.41
2017-06-24T06:54:46.213Z,1007.43
2017-06-24T06:55:26.702Z,1007.43
2017-06-24T06:56:07.202Z,1007.4
2017-06-24T06:56:47.704Z,1007.42
2017-06-24T06:57:28.186Z,1007.39
2017-06-24T06:58:08.702Z,1007.4
2017-06-24T06:58:49.196Z,1007.43
2017-06-24T06:59:29.692Z,1007.39
2017-06-24T07:00:10.182Z,1007.39
2017-06-24T07:00:50.660Z,1007.35
2017-06-24T07:01:31.165Z,1007.38
2017-06-24T07:02:11.660Z,1007.38
2017-06-24T07:02:52.163Z,1007.35
2017-06-24T07:03:32.667Z,1007.37
2017-06-24T07:04:13.161Z,1007.35
2017-06-24T07:04:53.665Z,1007.38
2017-06-24T07:05:34.153Z,1007.4
2017-06-24T07:06:14.648Z,1007.43
2017-06-24T07:06:55.955Z,1007.4
2017-06-24T07:07:36.452Z,1007.38
2017-06-24T07:08:16.971Z,1007.39
2017-06-24T07:08:57.466Z,1007.42
2017-06-24T07:09:37.962Z,1007.37
2017-06-24T07:10:18.450Z,1007.38
2017-06-24T07:10:58.943Z,1007.43
2017-06-24T07:11:39.432Z,1007.41
2017-06-24T07:12:19.937Z,1007.46
2017-06-24T07:13:00.428Z,1007.39
2017-06-24T07:13:40.931Z,1007.4
2017-06-24T07:14:21.439Z,1007.46
2017-06-24T07:15:01.935Z,1007.44
2017-06-24T07:15:42.438Z,1007.43
2017-06-24T07:16:22.937Z,1007.42
2017-06-24T07:17:04.237Z,1007.51
2017-06-24T07:17:44.727Z,1007.41
2017-06-24T07:18:25.222Z,1007.46
2017-06-24T07:19:05.715Z,1007.42
2017-06-24T07:19:46.229Z,1007.4
2017-06-24T07:20:26.730Z,1007.42
2017-06-24T07:21:07.227Z,1007.43
2017-06-24T07:21:47.722Z,1007.5
2017-06-24T07:22:28.216Z,1007.48
2017-06-24T07:23:08.720Z,1007.43
2017-06-24T07:23:49.224Z,1007.49
2017-06-24T07:24:29.712Z,1007.49
2017-06-24T07:25:10.200Z,1007.55
2017-06-24T07:25:50.695Z,1007.48
2017-06-24T07:26:31.197Z,1007.53
2017-06-24T07:27:11.702Z,1007.51
2017-06-24T07:27:52.206Z,1007.52
2017-06-24T07:28:32.698Z,1007.5
2017-06-24T07:29:13.198Z,1007.47
2017-06-24T07:29:53.713Z,1007.51
2017-06-24T07:30:34.214Z,1007.49
2017-06-24T07:31:14.730Z,1007.52
2017-06-24T07:31:55.226Z,1007.5
2017-06-24T07:32:35.728Z,1007.53
2017-06-24T07:33:16.221Z,1007.53
2017-06-24T07:33:56.715Z,1007.54
2017-06-24T07:34:38.069Z,1007.55
2017-06-24T07:35:18.554Z,1007.56
2017-06-24T07:35:59.071Z,1007.56
2017-06-24T07:36:39.562Z,1007.49
2017-06-24T07:37:20.060Z,1007.64
2017-06-24T07:38:00.560Z,1007.62
2017-06-24T07:38:41.053Z,1007.59
2017-06-24T07:39:21.560Z,1007.58
2017-06-24T07:40:02.050Z,1007.6
2017-06-24T07:40:42.554Z,1007.56
2017-06-24T07:41:23.045Z,1007.64
2017-06-24T07:42:03.541Z,1007.58
2017-06-24T07:42:44.058Z,1007.52
2017-06-24T07:43:24.566Z,1007.59
2017-06-24T07:44:05.076Z,1007.52
2017-06-24T07:44:45.562Z,1007.53
2017-06-24T07:45:26.066Z,1007.53
2017-06-24T07:46:06.561Z,1007.63
2017-06-24T07:46:47.056Z,1007.54
2017-06-24T07:47:27.550Z,1007.54
2017-06-24T07:48:08.050Z,1007.47
2017-06-24T07:48:48.548Z,1007.5
2017-06-24T07:49:29.053Z,1007.5
2017-06-24T07:50:09.549Z,1007.58
2017-06-24T07:50:50.034Z,1007.65
2017-06-24T07:51:30.545Z,1007.59
2017-06-24T07:52:11.052Z,1007.58
2017-06-24T07:52:51.550Z,1007.45
2017-06-24T07:53:32.043Z,1007.57
2017-06-24T07:54:12.562Z,1007.51
2017-06-24T07:54:53.067Z,1007.58
2017-06-24T07:55:34.256Z,1007.55
2017-06-24T07:56:14.769Z,1007.57
2017-06-24T07:56:55.239Z,1007.65
2017-06-24T07:57:35.701Z,1007.58
2017-06-24T07:58:16.190Z,1007.58
2017-06-24T07:58:56.654Z,1007.57
2017-06-24T07:59:37.113Z,1007.78
2017-06-24T08:00:17.564Z,1007.63
2017-06-24T08:02:30.282Z,1007.64
2017-06-24T08:03:10.782Z,1007.63
2017-06-24T08:03:51.280Z,1007.62
2017-06-24T08:04:31.787Z,1007.65
2017-06-24T08:05:12.286Z,1007.59
2017-06-24T08:05:52.775Z,1007.58
2017-06-24T08:06:33.276Z,1007.52
2017-06-24T08:07:13.769Z,1007.56
2017-06-24T08:07:54.251Z,1007.55
2017-06-24T08:08:34.750Z,1007.59
2017-06-24T08:09:15.243Z,1007.61
2017-06-24T08:09:55.738Z,1007.5
2017-06-24T08:10:36.245Z,1007.49
2017-06-24T08:11:16.742Z,1007.55
2017-06-24T08:11:57.228Z,1007.61
2017-06-24T08:12:37.737Z,1007.73
2017-06-24T08:13:18.242Z,1007.63
2017-06-24T08:13:58.736Z,1007.68
2017-06-24T08:14:40.223Z,1007.74
2017-06-24T08:15:20.698Z,1007.9
2017-06-24T08:16:01.195Z,1007.73
2017-06-24T08:16:41.695Z,1007.66
2017-06-24T08:17:22.186Z,1007.62
2017-06-24T08:18:02.680Z,1007.63
2017-06-24T08:18:43.207Z,1007.6